Aeroporto :
LOGIN :

Iscrizione | Disclaimer

   EN    FR    IT 

 










Sommario :    VFR   VFR Marginale   IFR   IFR Intensivo   IFR Molto Intensivo
Visibilità : 
Base nubi : 
>= 8 km
>= 3000ft
5 / 8 km
1000 / 3000 ft
1500m / 5 km
500 / 1000 ft
800 / 1500m
200 / 500 ft
< 800m
< 200 ft
Simboli :   Temporali  Nebbia  Neve Forte  Precipitazioni Forti  Vento > 20 kt
SIGMETs :   Varie  Temporali  Ghiacco  Turbolenza  Onda orograficha  Ceneri Vulcaniche






- Altitudine del aeroporto : 1906 ft
- Codice IATA : INN


LOWI - Innsbruck

ULTIMO METAR :
  • 291320Z 14005KT 100V170 9999 FEW008 OVC011 M00/M02 Q1021 NOSIG

METARs OBSOLETI :
  • 291250Z 15004KT 100V190 9999 FEW008 OVC010 M00/M02 Q1021 NOSIG
  • 291220Z 14003KT 110V190 9999 FEW008 OVC010 M00/M03 Q1021 NOSIG
  • 291150Z VRB02KT 9999 FEW008 OVC010 M00/M02 Q1021 NOSIG
  • 291120Z 14003KT 110V180 9999 FEW008 OVC010 M00/M03 Q1021 NOSIG
  • 291050Z 11003KT 070V170 9999 FEW007 BKN009 M01/M03 Q1021 TEMPO BKN010

TAF TAF LOWI
Valido dal 29 a 12 ore il 30 a 12 ore UTC


291115Z 2912/3012 08003KT 9999 BKN010 TX03/2913Z TNM07/3006Z
TEMPO 2912/3009 BKN008
BECMG 3009/3011 FEW010



MetMap, La meteo Aeronautica in un colpo d'occhio ! - Copyright ORBIFLY Dicembre 2007 - Disclaimer

ORBIFLY MET'MAP TEAM :

Programmazione e sviluppo : Alexandra Zaïnal
Concezione : Baudouin d'Aumeries
Aiuto per la programmazione : Marc-Olivier Méhu
Supporto tecnico e logistico : Manuel Goepfert
Aiuto per la traduzione : Arnaldo La Scala

Contatto : metmap@orbifly.com




FONTI E CREDITI :

   NOAA